sensor_id;sensor_type;location;lat;lon;timestamp;P1;durP1;ratioP1;P2;durP2;ratioP2
7116;SDS011;3600;48.568;7.870;2024-01-30T00:00:47;19.77;;;15.20;;
7116;SDS011;3600;48.568;7.870;2024-01-30T00:03:54;23.87;;;18.27;;
7116;SDS011;3600;48.568;7.870;2024-01-30T00:06:41;23.40;;;16.47;;
7116;SDS011;3600;48.568;7.870;2024-01-30T00:15:58;20.20;;;14.60;;
7116;SDS011;3600;48.568;7.870;2024-01-30T00:22:45;16.20;;;13.77;;
7116;SDS011;3600;48.568;7.870;2024-01-30T00:34:04;14.33;;;12.70;;
7116;SDS011;3600;48.568;7.870;2024-01-30T00:41:36;15.00;;;12.83;;
7116;SDS011;3600;48.568;7.870;2024-01-30T00:55:07;20.23;;;13.33;;
7116;SDS011;3600;48.568;7.870;2024-01-30T01:01:25;20.37;;;14.77;;
7116;SDS011;3600;48.568;7.870;2024-01-30T01:07:57;21.17;;;16.50;;
7116;SDS011;3600;48.568;7.870;2024-01-30T01:11:07;22.00;;;15.47;;
7116;SDS011;3600;48.568;7.870;2024-01-30T01:14:09;21.43;;;16.77;;
7116;SDS011;3600;48.568;7.870;2024-01-30T01:20:15;17.63;;;14.50;;
7116;SDS011;3600;48.568;7.870;2024-01-30T01:23:09;18.53;;;15.27;;
7116;SDS011;3600;48.568;7.870;2024-01-30T01:29:41;19.33;;;15.80;;
7116;SDS011;3600;48.568;7.870;2024-01-30T01:33:08;17.60;;;14.93;;
7116;SDS011;3600;48.568;7.870;2024-01-30T01:36:31;16.83;;;14.73;;
7116;SDS011;3600;48.568;7.870;2024-01-30T01:39:37;17.30;;;14.77;;
7116;SDS011;3600;48.568;7.870;2024-01-30T01:42:39;18.97;;;14.83;;
7116;SDS011;3600;48.568;7.870;2024-01-30T01:49:07;19.30;;;14.87;;
7116;SDS011;3600;48.568;7.870;2024-01-30T01:56:35;19.70;;;15.17;;
7116;SDS011;3600;48.568;7.870;2024-01-30T01:59:46;18.60;;;15.30;;
7116;SDS011;3600;48.568;7.870;2024-01-30T02:02:37;19.47;;;14.63;;
7116;SDS011;3600;48.568;7.870;2024-01-30T02:05:58;17.37;;;14.30;;
7116;SDS011;3600;48.568;7.870;2024-01-30T02:19:49;20.30;;;14.17;;
7116;SDS011;3600;48.568;7.870;2024-01-30T02:22:59;18.70;;;13.93;;
7116;SDS011;3600;48.568;7.870;2024-01-30T02:29:44;16.90;;;13.87;;
7116;SDS011;3600;48.568;7.870;2024-01-30T02:32:34;16.90;;;14.83;;
7116;SDS011;3600;48.568;7.870;2024-01-30T02:35:41;19.17;;;15.17;;
7116;SDS011;3600;48.568;7.870;2024-01-30T02:42:35;15.20;;;13.07;;
7116;SDS011;3600;48.568;7.870;2024-01-30T02:50:08;15.57;;;13.00;;
7116;SDS011;3600;48.568;7.870;2024-01-30T02:53:18;16.67;;;13.13;;
7116;SDS011;3600;48.568;7.870;2024-01-30T02:56:34;16.43;;;13.27;;
7116;SDS011;3600;48.568;7.870;2024-01-30T03:10:46;15.83;;;13.73;;
7116;SDS011;3600;48.568;7.870;2024-01-30T03:25:50;18.77;;;12.87;;
7116;SDS011;3600;48.568;7.870;2024-01-30T03:29:24;15.33;;;12.60;;
7116;SDS011;3600;48.568;7.870;2024-01-30T03:36:33;14.53;;;11.80;;
7116;SDS011;3600;48.568;7.870;2024-01-30T03:39:01;14.60;;;12.40;;
7116;SDS011;3600;48.568;7.870;2024-01-30T03:41:31;15.37;;;12.63;;
7116;SDS011;3600;48.568;7.870;2024-01-30T03:43:58;15.30;;;11.93;;
7116;SDS011;3600;48.568;7.870;2024-01-30T03:46:25;18.93;;;12.37;;
7116;SDS011;3600;48.568;7.870;2024-01-30T03:48:52;15.47;;;11.50;;
7116;SDS011;3600;48.568;7.870;2024-01-30T03:51:21;13.60;;;11.77;;
7116;SDS011;3600;48.568;7.870;2024-01-30T03:53:48;15.03;;;12.00;;
7116;SDS011;3600;48.568;7.870;2024-01-30T03:56:14;14.77;;;12.23;;
7116;SDS011;3600;48.568;7.870;2024-01-30T03:58:41;15.40;;;12.80;;
7116;SDS011;3600;48.568;7.870;2024-01-30T04:01:12;13.57;;;11.83;;
7116;SDS011;3600;48.568;7.870;2024-01-30T04:03:42;16.40;;;12.60;;
7116;SDS011;3600;48.568;7.870;2024-01-30T04:06:10;15.17;;;11.70;;
7116;SDS011;3600;48.568;7.870;2024-01-30T04:08:38;15.63;;;12.23;;
7116;SDS011;3600;48.568;7.870;2024-01-30T04:11:05;19.50;;;14.47;;
7116;SDS011;3600;48.568;7.870;2024-01-30T04:13:34;22.77;;;15.57;;
7116;SDS011;3600;48.568;7.870;2024-01-30T04:16:02;18.30;;;14.80;;
7116;SDS011;3600;48.568;7.870;2024-01-30T04:18:29;19.87;;;15.20;;
7116;SDS011;3600;48.568;7.870;2024-01-30T04:20:56;21.37;;;14.13;;
7116;SDS011;3600;48.568;7.870;2024-01-30T04:23:23;18.70;;;14.83;;
7116;SDS011;3600;48.568;7.870;2024-01-30T04:25:50;20.67;;;15.50;;
7116;SDS011;3600;48.568;7.870;2024-01-30T04:28:17;18.47;;;14.87;;
7116;SDS011;3600;48.568;7.870;2024-01-30T04:30:44;19.37;;;14.97;;
7116;SDS011;3600;48.568;7.870;2024-01-30T04:33:11;19.63;;;16.33;;
7116;SDS011;3600;48.568;7.870;2024-01-30T04:35:38;19.70;;;15.60;;
7116;SDS011;3600;48.568;7.870;2024-01-30T04:38:05;19.50;;;15.40;;
7116;SDS011;3600;48.568;7.870;2024-01-30T04:40:32;22.27;;;15.30;;
7116;SDS011;3600;48.568;7.870;2024-01-30T04:42:59;16.30;;;14.07;;
7116;SDS011;3600;48.568;7.870;2024-01-30T04:45:26;19.77;;;13.77;;
7116;SDS011;3600;48.568;7.870;2024-01-30T04:47:53;17.67;;;13.10;;
7116;SDS011;3600;48.568;7.870;2024-01-30T04:50:20;17.37;;;13.47;;
7116;SDS011;3600;48.568;7.870;2024-01-30T04:52:47;15.03;;;11.97;;
7116;SDS011;3600;48.568;7.870;2024-01-30T04:55:14;16.27;;;13.70;;
7116;SDS011;3600;48.568;7.870;2024-01-30T04:57:48;16.07;;;13.10;;
7116;SDS011;3600;48.568;7.870;2024-01-30T05:00:15;17.10;;;13.07;;
7116;SDS011;3600;48.568;7.870;2024-01-30T05:02:43;19.03;;;13.63;;
7116;SDS011;3600;48.568;7.870;2024-01-30T05:05:09;14.97;;;13.37;;
7116;SDS011;3600;48.568;7.870;2024-01-30T05:07:37;15.40;;;12.93;;
7116;SDS011;3600;48.568;7.870;2024-01-30T05:10:05;16.90;;;14.17;;
7116;SDS011;3600;48.568;7.870;2024-01-30T05:12:32;15.03;;;12.63;;
7116;SDS011;3600;48.568;7.870;2024-01-30T05:15:00;18.80;;;13.50;;
7116;SDS011;3600;48.568;7.870;2024-01-30T05:17:26;16.10;;;12.73;;
7116;SDS011;3600;48.568;7.870;2024-01-30T05:19:56;14.57;;;12.47;;
7116;SDS011;3600;48.568;7.870;2024-01-30T05:22:23;15.53;;;13.07;;
7116;SDS011;3600;48.568;7.870;2024-01-30T05:24:50;13.37;;;11.97;;
7116;SDS011;3600;48.568;7.870;2024-01-30T05:27:17;15.73;;;12.53;;
7116;SDS011;3600;48.568;7.870;2024-01-30T05:29:44;13.93;;;11.93;;
7116;SDS011;3600;48.568;7.870;2024-01-30T05:32:12;16.87;;;13.07;;
7116;SDS011;3600;48.568;7.870;2024-01-30T05:34:39;14.60;;;12.67;;
7116;SDS011;3600;48.568;7.870;2024-01-30T05:37:06;12.50;;;10.97;;
7116;SDS011;3600;48.568;7.870;2024-01-30T05:39:33;14.80;;;11.80;;
7116;SDS011;3600;48.568;7.870;2024-01-30T05:42:00;16.00;;;12.70;;
7116;SDS011;3600;48.568;7.870;2024-01-30T05:44:27;15.37;;;13.40;;
7116;SDS011;3600;48.568;7.870;2024-01-30T05:46:54;13.60;;;11.70;;
7116;SDS011;3600;48.568;7.870;2024-01-30T05:49:21;13.30;;;11.80;;
7116;SDS011;3600;48.568;7.870;2024-01-30T05:51:48;12.63;;;11.37;;
7116;SDS011;3600;48.568;7.870;2024-01-30T05:54:15;14.30;;;11.57;;
7116;SDS011;3600;48.568;7.870;2024-01-30T05:56:43;15.93;;;12.00;;
7116;SDS011;3600;48.568;7.870;2024-01-30T05:59:10;15.57;;;12.43;;
7116;SDS011;3600;48.568;7.870;2024-01-30T06:01:37;12.87;;;11.50;;
7116;SDS011;3600;48.568;7.870;2024-01-30T06:04:06;12.50;;;11.03;;
7116;SDS011;3600;48.568;7.870;2024-01-30T06:06:34;14.77;;;11.33;;
7116;SDS011;3600;48.568;7.870;2024-01-30T06:09:00;12.20;;;10.10;;
7116;SDS011;3600;48.568;7.870;2024-01-30T06:11:27;12.67;;;10.13;;
7116;SDS011;3600;48.568;7.870;2024-01-30T06:13:54;12.53;;;10.20;;
7116;SDS011;3600;48.568;7.870;2024-01-30T06:16:21;11.30;;;9.80;;
7116;SDS011;3600;48.568;7.870;2024-01-30T06:18:49;12.50;;;10.17;;
7116;SDS011;3600;48.568;7.870;2024-01-30T06:21:16;12.93;;;9.50;;
7116;SDS011;3600;48.568;7.870;2024-01-30T06:23:44;13.00;;;9.93;;
7116;SDS011;3600;48.568;7.870;2024-01-30T06:26:11;13.77;;;9.43;;
7116;SDS011;3600;48.568;7.870;2024-01-30T06:28:38;11.87;;;9.83;;
7116;SDS011;3600;48.568;7.870;2024-01-30T06:31:05;15.80;;;9.57;;
7116;SDS011;3600;48.568;7.870;2024-01-30T06:33:32;11.07;;;9.40;;
7116;SDS011;3600;48.568;7.870;2024-01-30T06:35:59;11.53;;;8.90;;
7116;SDS011;3600;48.568;7.870;2024-01-30T06:38:26;14.20;;;9.93;;
7116;SDS011;3600;48.568;7.870;2024-01-30T06:40:53;13.00;;;10.00;;
7116;SDS011;3600;48.568;7.870;2024-01-30T06:43:21;13.03;;;9.90;;
7116;SDS011;3600;48.568;7.870;2024-01-30T06:45:49;10.90;;;8.93;;
7116;SDS011;3600;48.568;7.870;2024-01-30T06:48:16;11.70;;;9.33;;
7116;SDS011;3600;48.568;7.870;2024-01-30T06:50:43;11.90;;;9.03;;
7116;SDS011;3600;48.568;7.870;2024-01-30T06:53:11;12.00;;;8.53;;
7116;SDS011;3600;48.568;7.870;2024-01-30T06:55:38;11.10;;;8.83;;
7116;SDS011;3600;48.568;7.870;2024-01-30T06:58:05;10.13;;;9.00;;
7116;SDS011;3600;48.568;7.870;2024-01-30T07:00:33;12.40;;;8.43;;
7116;SDS011;3600;48.568;7.870;2024-01-30T07:03:00;12.13;;;8.73;;
7116;SDS011;3600;48.568;7.870;2024-01-30T07:05:26;11.20;;;8.50;;
7116;SDS011;3600;48.568;7.870;2024-01-30T07:07:53;11.67;;;8.83;;
7116;SDS011;3600;48.568;7.870;2024-01-30T07:10:21;12.30;;;8.40;;
7116;SDS011;3600;48.568;7.870;2024-01-30T07:12:48;13.90;;;9.73;;
7116;SDS011;3600;48.568;7.870;2024-01-30T07:15:15;13.50;;;10.53;;
7116;SDS011;3600;48.568;7.870;2024-01-30T07:17:46;10.37;;;9.23;;
7116;SDS011;3600;48.568;7.870;2024-01-30T07:20:13;12.03;;;9.43;;
7116;SDS011;3600;48.568;7.870;2024-01-30T07:22:43;11.17;;;9.03;;
7116;SDS011;3600;48.568;7.870;2024-01-30T07:25:10;13.10;;;9.23;;
7116;SDS011;3600;48.568;7.870;2024-01-30T07:27:37;15.30;;;9.20;;
7116;SDS011;3600;48.568;7.870;2024-01-30T07:30:05;12.60;;;10.47;;
7116;SDS011;3600;48.568;7.870;2024-01-30T07:32:32;10.13;;;9.00;;
7116;SDS011;3600;48.568;7.870;2024-01-30T07:34:59;14.00;;;9.83;;
7116;SDS011;3600;48.568;7.870;2024-01-30T07:37:34;10.57;;;9.20;;
7116;SDS011;3600;48.568;7.870;2024-01-30T07:40:02;12.20;;;9.57;;
7116;SDS011;3600;48.568;7.870;2024-01-30T07:42:30;11.77;;;9.83;;
7116;SDS011;3600;48.568;7.870;2024-01-30T07:44:59;11.90;;;9.50;;
7116;SDS011;3600;48.568;7.870;2024-01-30T07:47:26;10.53;;;8.57;;
7116;SDS011;3600;48.568;7.870;2024-01-30T07:49:54;10.03;;;8.83;;
7116;SDS011;3600;48.568;7.870;2024-01-30T07:52:21;10.30;;;8.17;;
7116;SDS011;3600;48.568;7.870;2024-01-30T07:54:49;16.10;;;9.77;;
7116;SDS011;3600;48.568;7.870;2024-01-30T07:57:17;9.53;;;8.53;;
7116;SDS011;3600;48.568;7.870;2024-01-30T07:59:44;14.23;;;9.43;;
7116;SDS011;3600;48.568;7.870;2024-01-30T08:02:13;10.87;;;9.53;;
7116;SDS011;3600;48.568;7.870;2024-01-30T08:04:40;11.93;;;9.30;;
7116;SDS011;3600;48.568;7.870;2024-01-30T08:07:07;10.90;;;8.83;;
7116;SDS011;3600;48.568;7.870;2024-01-30T08:09:34;11.47;;;9.40;;
7116;SDS011;3600;48.568;7.870;2024-01-30T08:12:01;14.77;;;10.47;;
7116;SDS011;3600;48.568;7.870;2024-01-30T08:14:28;17.30;;;11.40;;
7116;SDS011;3600;48.568;7.870;2024-01-30T08:16:55;18.90;;;14.57;;
7116;SDS011;3600;48.568;7.870;2024-01-30T08:19:22;19.53;;;15.03;;
7116;SDS011;3600;48.568;7.870;2024-01-30T08:21:49;15.97;;;14.23;;
7116;SDS011;3600;48.568;7.870;2024-01-30T08:24:16;16.87;;;13.97;;
7116;SDS011;3600;48.568;7.870;2024-01-30T08:26:43;14.80;;;12.77;;
7116;SDS011;3600;48.568;7.870;2024-01-30T08:29:10;13.13;;;11.53;;
7116;SDS011;3600;48.568;7.870;2024-01-30T08:31:37;11.63;;;10.43;;
7116;SDS011;3600;48.568;7.870;2024-01-30T08:34:04;13.70;;;10.67;;
7116;SDS011;3600;48.568;7.870;2024-01-30T08:36:31;13.07;;;10.47;;
7116;SDS011;3600;48.568;7.870;2024-01-30T08:38:58;12.63;;;10.30;;
7116;SDS011;3600;48.568;7.870;2024-01-30T08:41:30;12.17;;;10.27;;
7116;SDS011;3600;48.568;7.870;2024-01-30T08:43:57;11.47;;;9.27;;
7116;SDS011;3600;48.568;7.870;2024-01-30T08:46:23;12.03;;;9.13;;
7116;SDS011;3600;48.568;7.870;2024-01-30T08:48:51;10.67;;;9.20;;
7116;SDS011;3600;48.568;7.870;2024-01-30T08:51:18;14.93;;;10.07;;
7116;SDS011;3600;48.568;7.870;2024-01-30T08:53:45;13.23;;;9.10;;
7116;SDS011;3600;48.568;7.870;2024-01-30T08:56:11;10.70;;;9.43;;
7116;SDS011;3600;48.568;7.870;2024-01-30T08:58:38;11.47;;;9.40;;
7116;SDS011;3600;48.568;7.870;2024-01-30T09:01:08;12.83;;;10.03;;
7116;SDS011;3600;48.568;7.870;2024-01-30T09:03:35;12.30;;;10.10;;
7116;SDS011;3600;48.568;7.870;2024-01-30T09:06:09;12.17;;;10.70;;
7116;SDS011;3600;48.568;7.870;2024-01-30T09:08:38;13.47;;;10.20;;
7116;SDS011;3600;48.568;7.870;2024-01-30T09:11:08;13.50;;;10.03;;
7116;SDS011;3600;48.568;7.870;2024-01-30T09:13:36;12.00;;;9.60;;
7116;SDS011;3600;48.568;7.870;2024-01-30T09:16:04;11.83;;;9.47;;
7116;SDS011;3600;48.568;7.870;2024-01-30T09:18:31;11.93;;;9.33;;
7116;SDS011;3600;48.568;7.870;2024-01-30T09:20:58;12.03;;;9.73;;
7116;SDS011;3600;48.568;7.870;2024-01-30T09:23:26;11.57;;;9.40;;
7116;SDS011;3600;48.568;7.870;2024-01-30T09:25:54;10.80;;;9.70;;
7116;SDS011;3600;48.568;7.870;2024-01-30T09:28:21;11.60;;;9.13;;
7116;SDS011;3600;48.568;7.870;2024-01-30T09:30:52;9.60;;;8.47;;
7116;SDS011;3600;48.568;7.870;2024-01-30T09:33:19;11.33;;;9.67;;
7116;SDS011;3600;48.568;7.870;2024-01-30T09:35:46;10.83;;;8.90;;
7116;SDS011;3600;48.568;7.870;2024-01-30T09:38:13;11.00;;;9.10;;
7116;SDS011;3600;48.568;7.870;2024-01-30T09:40:40;12.07;;;9.70;;
7116;SDS011;3600;48.568;7.870;2024-01-30T09:43:08;12.73;;;10.90;;
7116;SDS011;3600;48.568;7.870;2024-01-30T09:45:41;11.80;;;9.70;;
7116;SDS011;3600;48.568;7.870;2024-01-30T09:48:10;12.30;;;10.37;;
7116;SDS011;3600;48.568;7.870;2024-01-30T09:50:37;12.37;;;9.73;;
7116;SDS011;3600;48.568;7.870;2024-01-30T09:53:05;11.27;;;10.17;;
7116;SDS011;3600;48.568;7.870;2024-01-30T09:55:35;11.70;;;9.97;;
7116;SDS011;3600;48.568;7.870;2024-01-30T09:58:03;11.73;;;10.27;;
7116;SDS011;3600;48.568;7.870;2024-01-30T10:00:30;11.47;;;9.67;;
7116;SDS011;3600;48.568;7.870;2024-01-30T10:02:57;10.80;;;9.17;;
7116;SDS011;3600;48.568;7.870;2024-01-30T10:05:26;11.63;;;9.63;;
7116;SDS011;3600;48.568;7.870;2024-01-30T10:07:56;11.63;;;9.87;;
7116;SDS011;3600;48.568;7.870;2024-01-30T10:10:24;11.20;;;9.93;;
7116;SDS011;3600;48.568;7.870;2024-01-30T10:12:51;12.23;;;10.07;;
7116;SDS011;3600;48.568;7.870;2024-01-30T10:15:18;10.80;;;9.70;;
7116;SDS011;3600;48.568;7.870;2024-01-30T10:17:49;10.73;;;9.03;;
7116;SDS011;3600;48.568;7.870;2024-01-30T10:20:16;12.67;;;9.40;;
7116;SDS011;3600;48.568;7.870;2024-01-30T10:22:44;11.17;;;9.90;;
7116;SDS011;3600;48.568;7.870;2024-01-30T10:25:12;12.80;;;10.63;;
7116;SDS011;3600;48.568;7.870;2024-01-30T10:27:39;10.87;;;9.77;;
7116;SDS011;3600;48.568;7.870;2024-01-30T10:30:06;11.33;;;9.93;;
7116;SDS011;3600;48.568;7.870;2024-01-30T10:32:34;13.83;;;10.80;;
7116;SDS011;3600;48.568;7.870;2024-01-30T10:35:02;16.23;;;11.87;;
7116;SDS011;3600;48.568;7.870;2024-01-30T10:37:29;13.23;;;10.70;;
7116;SDS011;3600;48.568;7.870;2024-01-30T10:40:01;13.53;;;11.20;;
7116;SDS011;3600;48.568;7.870;2024-01-30T10:42:32;12.47;;;9.80;;
7116;SDS011;3600;48.568;7.870;2024-01-30T10:45:06;11.97;;;9.63;;
7116;SDS011;3600;48.568;7.870;2024-01-30T10:47:43;11.27;;;9.90;;
7116;SDS011;3600;48.568;7.870;2024-01-30T10:50:21;12.57;;;10.53;;
7116;SDS011;3600;48.568;7.870;2024-01-30T10:52:53;13.90;;;10.43;;
7116;SDS011;3600;48.568;7.870;2024-01-30T10:55:21;11.80;;;10.53;;
7116;SDS011;3600;48.568;7.870;2024-01-30T10:57:50;16.07;;;11.17;;
7116;SDS011;3600;48.568;7.870;2024-01-30T11:00:17;11.63;;;10.43;;
7116;SDS011;3600;48.568;7.870;2024-01-30T11:02:48;13.47;;;10.70;;
7116;SDS011;3600;48.568;7.870;2024-01-30T11:05:22;12.93;;;10.97;;
7116;SDS011;3600;48.568;7.870;2024-01-30T11:07:54;13.03;;;10.00;;
7116;SDS011;3600;48.568;7.870;2024-01-30T11:10:21;16.47;;;10.87;;
7116;SDS011;3600;48.568;7.870;2024-01-30T11:12:51;12.37;;;10.13;;
7116;SDS011;3600;48.568;7.870;2024-01-30T11:15:18;10.53;;;9.43;;
7116;SDS011;3600;48.568;7.870;2024-01-30T11:20:22;11.90;;;9.93;;
7116;SDS011;3600;48.568;7.870;2024-01-30T11:22:52;11.13;;;9.90;;
7116;SDS011;3600;48.568;7.870;2024-01-30T11:25:21;11.73;;;9.57;;
7116;SDS011;3600;48.568;7.870;2024-01-30T11:27:50;11.03;;;9.03;;
7116;SDS011;3600;48.568;7.870;2024-01-30T11:30:21;11.00;;;9.87;;
7116;SDS011;3600;48.568;7.870;2024-01-30T11:33:03;13.10;;;9.43;;
7116;SDS011;3600;48.568;7.870;2024-01-30T11:35:36;10.40;;;9.00;;
7116;SDS011;3600;48.568;7.870;2024-01-30T11:38:10;11.67;;;9.77;;
7116;SDS011;3600;48.568;7.870;2024-01-30T11:40:39;11.87;;;9.77;;
7116;SDS011;3600;48.568;7.870;2024-01-30T11:43:08;10.07;;;8.90;;
7116;SDS011;3600;48.568;7.870;2024-01-30T11:45:36;11.23;;;9.43;;
7116;SDS011;3600;48.568;7.870;2024-01-30T11:48:03;11.13;;;9.93;;
7116;SDS011;3600;48.568;7.870;2024-01-30T11:50:34;10.23;;;9.20;;
7116;SDS011;3600;48.568;7.870;2024-01-30T11:53:05;10.80;;;9.13;;
7116;SDS011;3600;48.568;7.870;2024-01-30T11:55:32;13.60;;;9.30;;
7116;SDS011;3600;48.568;7.870;2024-01-30T11:58:01;13.30;;;9.80;;
7116;SDS011;3600;48.568;7.870;2024-01-30T12:00:29;14.53;;;9.97;;
7116;SDS011;3600;48.568;7.870;2024-01-30T12:03:01;13.03;;;9.87;;
7116;SDS011;3600;48.568;7.870;2024-01-30T12:05:30;10.30;;;9.23;;
7116;SDS011;3600;48.568;7.870;2024-01-30T12:07:57;9.37;;;8.37;;
7116;SDS011;3600;48.568;7.870;2024-01-30T12:10:28;8.27;;;7.30;;
7116;SDS011;3600;48.568;7.870;2024-01-30T12:12:56;10.90;;;7.50;;
7116;SDS011;3600;48.568;7.870;2024-01-30T12:15:24;7.07;;;6.37;;
7116;SDS011;3600;48.568;7.870;2024-01-30T12:17:51;9.37;;;6.53;;
7116;SDS011;3600;48.568;7.870;2024-01-30T12:20:19;10.27;;;6.47;;
7116;SDS011;3600;48.568;7.870;2024-01-30T12:22:49;6.27;;;5.67;;
7116;SDS011;3600;48.568;7.870;2024-01-30T12:25:17;7.13;;;5.80;;
7116;SDS011;3600;48.568;7.870;2024-01-30T12:27:47;8.53;;;5.50;;
7116;SDS011;3600;48.568;7.870;2024-01-30T12:30:18;7.00;;;5.53;;
7116;SDS011;3600;48.568;7.870;2024-01-30T12:32:47;6.00;;;5.47;;
7116;SDS011;3600;48.568;7.870;2024-01-30T12:35:17;6.07;;;5.47;;
7116;SDS011;3600;48.568;7.870;2024-01-30T12:37:46;7.60;;;5.83;;
7116;SDS011;3600;48.568;7.870;2024-01-30T12:40:14;6.00;;;5.40;;
7116;SDS011;3600;48.568;7.870;2024-01-30T12:42:42;5.77;;;5.17;;
7116;SDS011;3600;48.568;7.870;2024-01-30T12:45:09;5.60;;;5.10;;
7116;SDS011;3600;48.568;7.870;2024-01-30T12:47:40;6.27;;;5.67;;
7116;SDS011;3600;48.568;7.870;2024-01-30T12:50:08;7.17;;;5.47;;
7116;SDS011;3600;48.568;7.870;2024-01-30T12:52:36;6.27;;;5.63;;
7116;SDS011;3600;48.568;7.870;2024-01-30T12:55:03;7.43;;;5.40;;
7116;SDS011;3600;48.568;7.870;2024-01-30T12:57:30;7.43;;;5.67;;
7116;SDS011;3600;48.568;7.870;2024-01-30T12:59:57;6.47;;;5.53;;
7116;SDS011;3600;48.568;7.870;2024-01-30T13:02:24;7.37;;;5.67;;
7116;SDS011;3600;48.568;7.870;2024-01-30T13:04:52;7.10;;;5.10;;
7116;SDS011;3600;48.568;7.870;2024-01-30T13:07:20;7.50;;;5.40;;
7116;SDS011;3600;48.568;7.870;2024-01-30T13:09:48;8.23;;;5.67;;
7116;SDS011;3600;48.568;7.870;2024-01-30T13:12:15;7.30;;;5.50;;
7116;SDS011;3600;48.568;7.870;2024-01-30T13:14:41;6.00;;;5.40;;
7116;SDS011;3600;48.568;7.870;2024-01-30T13:17:12;6.70;;;5.53;;
7116;SDS011;3600;48.568;7.870;2024-01-30T13:19:42;5.50;;;5.00;;
7116;SDS011;3600;48.568;7.870;2024-01-30T13:22:09;7.73;;;5.07;;
7116;SDS011;3600;48.568;7.870;2024-01-30T13:24:36;5.65;;;5.15;;
7116;SDS011;3600;48.568;7.870;2024-01-30T13:27:03;5.80;;;5.20;;
7116;SDS011;3600;48.568;7.870;2024-01-30T13:29:32;6.97;;;5.00;;
7116;SDS011;3600;48.568;7.870;2024-01-30T13:31:59;5.93;;;5.07;;
7116;SDS011;3600;48.568;7.870;2024-01-30T13:34:26;7.13;;;5.20;;
7116;SDS011;3600;48.568;7.870;2024-01-30T13:36:52;7.07;;;5.57;;
7116;SDS011;3600;48.568;7.870;2024-01-30T13:39:19;7.15;;;5.65;;
7116;SDS011;3600;48.568;7.870;2024-01-30T13:41:49;6.35;;;5.28;;
7116;SDS011;3600;48.568;7.870;2024-01-30T13:44:16;7.60;;;6.32;;
7116;SDS011;3600;48.568;7.870;2024-01-30T13:46:43;6.83;;;5.33;;
7116;SDS011;3600;48.568;7.870;2024-01-30T13:49:11;6.68;;;5.93;;
7116;SDS011;3600;48.568;7.870;2024-01-30T13:51:38;7.95;;;5.43;;
7116;SDS011;3600;48.568;7.870;2024-01-30T13:54:05;6.32;;;5.72;;
7116;SDS011;3600;48.568;7.870;2024-01-30T13:56:31;6.10;;;5.30;;
7116;SDS011;3600;48.568;7.870;2024-01-30T13:58:59;7.28;;;5.80;;
7116;SDS011;3600;48.568;7.870;2024-01-30T14:01:27;5.70;;;5.15;;
7116;SDS011;3600;48.568;7.870;2024-01-30T14:03:54;6.28;;;5.63;;
7116;SDS011;3600;48.568;7.870;2024-01-30T14:06:21;7.23;;;5.90;;
7116;SDS011;3600;48.568;7.870;2024-01-30T14:08:48;6.43;;;4.78;;
7116;SDS011;3600;48.568;7.870;2024-01-30T14:11:26;6.78;;;5.82;;
7116;SDS011;3600;48.568;7.870;2024-01-30T14:13:53;11.38;;;6.60;;
7116;SDS011;3600;48.568;7.870;2024-01-30T14:16:19;6.78;;;5.68;;
7116;SDS011;3600;48.568;7.870;2024-01-30T14:18:46;6.55;;;5.95;;
7116;SDS011;3600;48.568;7.870;2024-01-30T14:21:14;8.63;;;5.78;;
7116;SDS011;3600;48.568;7.870;2024-01-30T14:23:41;5.72;;;5.22;;
7116;SDS011;3600;48.568;7.870;2024-01-30T14:26:08;6.40;;;5.30;;
7116;SDS011;3600;48.568;7.870;2024-01-30T14:28:35;6.22;;;5.55;;
7116;SDS011;3600;48.568;7.870;2024-01-30T14:31:01;6.23;;;5.63;;
7116;SDS011;3600;48.568;7.870;2024-01-30T14:33:29;6.05;;;5.45;;
7116;SDS011;3600;48.568;7.870;2024-01-30T14:35:56;6.10;;;5.50;;
7116;SDS011;3600;48.568;7.870;2024-01-30T14:38:23;6.97;;;5.97;;
7116;SDS011;3600;48.568;7.870;2024-01-30T14:40:51;6.10;;;5.50;;
7116;SDS011;3600;48.568;7.870;2024-01-30T14:43:18;6.03;;;5.20;;
7116;SDS011;3600;48.568;7.870;2024-01-30T14:45:45;6.82;;;5.82;;
7116;SDS011;3600;48.568;7.870;2024-01-30T14:48:15;10.40;;;5.45;;
7116;SDS011;3600;48.568;7.870;2024-01-30T14:50:42;5.70;;;4.93;;
7116;SDS011;3600;48.568;7.870;2024-01-30T14:53:09;5.68;;;5.07;;
7116;SDS011;3600;48.568;7.870;2024-01-30T14:55:36;5.35;;;4.85;;
7116;SDS011;3600;48.568;7.870;2024-01-30T14:58:03;5.95;;;5.32;;
7116;SDS011;3600;48.568;7.870;2024-01-30T15:00:30;7.63;;;5.25;;
7116;SDS011;3600;48.568;7.870;2024-01-30T15:02:57;8.10;;;5.90;;
7116;SDS011;3600;48.568;7.870;2024-01-30T15:05:24;5.68;;;5.18;;
7116;SDS011;3600;48.568;7.870;2024-01-30T15:07:51;5.72;;;5.13;;
7116;SDS011;3600;48.568;7.870;2024-01-30T15:10:18;6.22;;;5.25;;
7116;SDS011;3600;48.568;7.870;2024-01-30T15:12:45;5.28;;;4.68;;
7116;SDS011;3600;48.568;7.870;2024-01-30T15:15:12;4.88;;;4.38;;
7116;SDS011;3600;48.568;7.870;2024-01-30T15:17:39;5.05;;;4.63;;
7116;SDS011;3600;48.568;7.870;2024-01-30T15:20:06;7.07;;;4.70;;
7116;SDS011;3600;48.568;7.870;2024-01-30T15:22:34;6.27;;;4.60;;
7116;SDS011;3600;48.568;7.870;2024-01-30T15:25:01;5.53;;;4.80;;
7116;SDS011;3600;48.568;7.870;2024-01-30T15:27:30;4.70;;;4.30;;
7116;SDS011;3600;48.568;7.870;2024-01-30T15:29:57;6.90;;;5.40;;
7116;SDS011;3600;48.568;7.870;2024-01-30T15:32:24;6.40;;;5.20;;
7116;SDS011;3600;48.568;7.870;2024-01-30T15:34:51;6.10;;;5.50;;
7116;SDS011;3600;48.568;7.870;2024-01-30T15:37:18;6.80;;;5.65;;
7116;SDS011;3600;48.568;7.870;2024-01-30T15:39:45;8.18;;;6.15;;
7116;SDS011;3600;48.568;7.870;2024-01-30T15:42:12;6.37;;;5.13;;
7116;SDS011;3600;48.568;7.870;2024-01-30T15:44:39;8.13;;;5.43;;
7116;SDS011;3600;48.568;7.870;2024-01-30T15:47:06;5.90;;;5.37;;
7116;SDS011;3600;48.568;7.870;2024-01-30T15:49:33;6.83;;;5.47;;
7116;SDS011;3600;48.568;7.870;2024-01-30T15:52:00;6.57;;;5.57;;
7116;SDS011;3600;48.568;7.870;2024-01-30T15:54:27;7.88;;;5.95;;
7116;SDS011;3600;48.568;7.870;2024-01-30T15:56:54;10.10;;;5.77;;
7116;SDS011;3600;48.568;7.870;2024-01-30T15:59:21;8.68;;;6.03;;
7116;SDS011;3600;48.568;7.870;2024-01-30T16:01:48;7.70;;;5.18;;
7116;SDS011;3600;48.568;7.870;2024-01-30T16:04:16;7.30;;;6.25;;
7116;SDS011;3600;48.568;7.870;2024-01-30T16:06:43;7.70;;;6.23;;
7116;SDS011;3600;48.568;7.870;2024-01-30T16:09:10;9.30;;;6.30;;
7116;SDS011;3600;48.568;7.870;2024-01-30T16:11:37;8.43;;;6.07;;
7116;SDS011;3600;48.568;7.870;2024-01-30T16:14:05;7.93;;;6.07;;
7116;SDS011;3600;48.568;7.870;2024-01-30T16:16:32;7.68;;;6.22;;
7116;SDS011;3600;48.568;7.870;2024-01-30T16:19:00;9.10;;;6.10;;
7116;SDS011;3600;48.568;7.870;2024-01-30T16:21:27;6.50;;;5.80;;
7116;SDS011;3600;48.568;7.870;2024-01-30T16:23:54;8.02;;;6.57;;
7116;SDS011;3600;48.568;7.870;2024-01-30T16:26:22;8.37;;;6.13;;
7116;SDS011;3600;48.568;7.870;2024-01-30T16:28:49;6.30;;;5.70;;
7116;SDS011;3600;48.568;7.870;2024-01-30T16:31:16;7.30;;;6.40;;
7116;SDS011;3600;48.568;7.870;2024-01-30T16:33:47;8.07;;;6.63;;
7116;SDS011;3600;48.568;7.870;2024-01-30T16:36:17;7.60;;;6.80;;
7116;SDS011;3600;48.568;7.870;2024-01-30T16:38:44;8.77;;;7.20;;
7116;SDS011;3600;48.568;7.870;2024-01-30T16:41:11;8.57;;;6.70;;
7116;SDS011;3600;48.568;7.870;2024-01-30T16:43:38;8.97;;;6.70;;
7116;SDS011;3600;48.568;7.870;2024-01-30T16:46:05;8.73;;;6.83;;
7116;SDS011;3600;48.568;7.870;2024-01-30T16:48:32;8.57;;;6.33;;
7116;SDS011;3600;48.568;7.870;2024-01-30T16:50:59;9.53;;;6.50;;
7116;SDS011;3600;48.568;7.870;2024-01-30T16:53:25;7.27;;;6.57;;
7116;SDS011;3600;48.568;7.870;2024-01-30T16:55:52;9.27;;;7.00;;
7116;SDS011;3600;48.568;7.870;2024-01-30T16:58:19;9.33;;;6.60;;
7116;SDS011;3600;48.568;7.870;2024-01-30T17:00:46;9.10;;;6.23;;
7116;SDS011;3600;48.568;7.870;2024-01-30T17:03:14;7.90;;;6.13;;
7116;SDS011;3600;48.568;7.870;2024-01-30T17:05:40;7.40;;;6.43;;
7116;SDS011;3600;48.568;7.870;2024-01-30T17:08:08;8.20;;;6.67;;
7116;SDS011;3600;48.568;7.870;2024-01-30T17:10:35;7.03;;;5.90;;
7116;SDS011;3600;48.568;7.870;2024-01-30T17:13:02;7.70;;;6.90;;